sensor_id;sensor_type;location;lat;lon;timestamp;pressure;altitude;pressure_sealevel;temperature;humidity
60015;BME280;45867;52.480;6.056;2023-04-21T00:00:49;101644.00;;;7.66;100.00
60015;BME280;45867;52.480;6.056;2023-04-21T00:03:14;101643.47;;;7.75;100.00
60015;BME280;45867;52.480;6.056;2023-04-21T00:05:40;101647.63;;;7.95;100.00
60015;BME280;45867;52.480;6.056;2023-04-21T00:08:07;101632.59;;;7.95;100.00
60015;BME280;45867;52.480;6.056;2023-04-21T00:10:33;101630.63;;;7.91;100.00
60015;BME280;45867;52.480;6.056;2023-04-21T00:12:58;101635.81;;;7.86;100.00
60015;BME280;45867;52.480;6.056;2023-04-21T00:15:23;101624.19;;;7.87;100.00
60015;BME280;45867;52.480;6.056;2023-04-21T00:17:49;101606.41;;;7.82;100.00
60015;BME280;45867;52.480;6.056;2023-04-21T00:20:14;101606.44;;;7.94;100.00
60015;BME280;45867;52.480;6.056;2023-04-21T00:22:40;101595.88;;;7.94;100.00
60015;BME280;45867;52.480;6.056;2023-04-21T00:25:05;101572.81;;;7.89;100.00
60015;BME280;45867;52.480;6.056;2023-04-21T00:27:31;101590.59;;;7.94;100.00
60015;BME280;45867;52.480;6.056;2023-04-21T00:29:56;101578.66;;;7.91;100.00
60015;BME280;45867;52.480;6.056;2023-04-21T00:32:21;101580.03;;;7.94;100.00
60015;BME280;45867;52.480;6.056;2023-04-21T00:34:47;101578.31;;;7.99;100.00
60015;BME280;45867;52.480;6.056;2023-04-21T00:37:12;101569.16;;;8.02;100.00
60015;BME280;45867;52.480;6.056;2023-04-21T00:39:37;101565.22;;;8.05;100.00
60015;BME280;45867;52.480;6.056;2023-04-21T00:42:03;101569.59;;;8.11;100.00
60015;BME280;45867;52.480;6.056;2023-04-21T00:44:28;101560.03;;;8.10;100.00
60015;BME280;45867;52.480;6.056;2023-04-21T00:46:53;101549.28;;;8.11;100.00
60015;BME280;45867;52.480;6.056;2023-04-21T00:49:19;101545.38;;;8.14;100.00
60015;BME280;45867;52.480;6.056;2023-04-21T00:51:44;101535.81;;;8.13;100.00
60015;BME280;45867;52.480;6.056;2023-04-21T00:54:10;101527.91;;;8.13;100.00
60015;BME280;45867;52.480;6.056;2023-04-21T00:56:36;101530.00;;;8.11;100.00
60015;BME280;45867;52.480;6.056;2023-04-21T00:59:02;101532.38;;;8.12;100.00
60015;BME280;45867;52.480;6.056;2023-04-21T01:01:29;101532.06;;;8.09;100.00
60015;BME280;45867;52.480;6.056;2023-04-21T01:03:58;101521.97;;;8.06;100.00
60015;BME280;45867;52.480;6.056;2023-04-21T01:06:28;101518.75;;;8.04;100.00
60015;BME280;45867;52.480;6.056;2023-04-21T01:08:54;101519.00;;;8.02;100.00
60015;BME280;45867;52.480;6.056;2023-04-21T01:11:20;101524.81;;;8.04;100.00
60015;BME280;45867;52.480;6.056;2023-04-21T01:13:46;101531.72;;;8.05;100.00
60015;BME280;45867;52.480;6.056;2023-04-21T01:16:16;101535.63;;;8.03;100.00
60015;BME280;45867;52.480;6.056;2023-04-21T01:18:42;101520.59;;;8.03;100.00
60015;BME280;45867;52.480;6.056;2023-04-21T01:21:07;101526.09;;;8.01;100.00
60015;BME280;45867;52.480;6.056;2023-04-21T01:23:33;101519.00;;;8.02;100.00
60015;BME280;45867;52.480;6.056;2023-04-21T01:25:58;101521.75;;;7.95;100.00
60015;BME280;45867;52.480;6.056;2023-04-21T01:28:24;101510.84;;;7.92;100.00
60015;BME280;45867;52.480;6.056;2023-04-21T01:30:57;101523.78;;;7.93;100.00
60015;BME280;45867;52.480;6.056;2023-04-21T01:33:22;101530.13;;;7.92;100.00
60015;BME280;45867;52.480;6.056;2023-04-21T01:35:48;101523.34;;;7.85;100.00
60015;BME280;45867;52.480;6.056;2023-04-21T01:38:14;101532.31;;;7.84;100.00
60015;BME280;45867;52.480;6.056;2023-04-21T01:40:43;101520.72;;;7.85;100.00
60015;BME280;45867;52.480;6.056;2023-04-21T01:43:11;101532.75;;;7.92;100.00
60015;BME280;45867;52.480;6.056;2023-04-21T01:45:36;101524.50;;;7.89;100.00
60015;BME280;45867;52.480;6.056;2023-04-21T01:48:01;101516.34;;;7.90;100.00
60015;BME280;45867;52.480;6.056;2023-04-21T01:50:27;101529.19;;;7.98;100.00
60015;BME280;45867;52.480;6.056;2023-04-21T01:52:52;101533.91;;;8.08;100.00
60015;BME280;45867;52.480;6.056;2023-04-21T01:55:18;101526.78;;;8.09;100.00
60015;BME280;45867;52.480;6.056;2023-04-21T01:57:43;101518.06;;;8.08;100.00
60015;BME280;45867;52.480;6.056;2023-04-21T02:00:09;101524.72;;;8.11;100.00
60015;BME280;45867;52.480;6.056;2023-04-21T02:02:35;101528.72;;;8.13;100.00
60015;BME280;45867;52.480;6.056;2023-04-21T02:05:00;101530.78;;;8.11;100.00
60015;BME280;45867;52.480;6.056;2023-04-21T02:07:25;101531.00;;;8.10;100.00
60015;BME280;45867;52.480;6.056;2023-04-21T02:09:51;101526.09;;;8.13;100.00
60015;BME280;45867;52.480;6.056;2023-04-21T02:12:16;101533.53;;;8.16;100.00
60015;BME280;45867;52.480;6.056;2023-04-21T02:14:41;101520.22;;;8.11;100.00
60015;BME280;45867;52.480;6.056;2023-04-21T02:17:07;101527.78;;;8.19;100.00
60015;BME280;45867;52.480;6.056;2023-04-21T02:19:32;101532.28;;;8.19;100.00
60015;BME280;45867;52.480;6.056;2023-04-21T02:21:57;101529.06;;;8.17;100.00
60015;BME280;45867;52.480;6.056;2023-04-21T02:24:23;101529.75;;;8.12;100.00
60015;BME280;45867;52.480;6.056;2023-04-21T02:26:48;101530.75;;;8.23;100.00
60015;BME280;45867;52.480;6.056;2023-04-21T02:29:13;101513.78;;;8.19;100.00
60015;BME280;45867;52.480;6.056;2023-04-21T02:31:39;101529.38;;;8.20;100.00
60015;BME280;45867;52.480;6.056;2023-04-21T02:34:05;101523.41;;;8.25;100.00
60015;BME280;45867;52.480;6.056;2023-04-21T02:36:30;101535.94;;;8.30;100.00
60015;BME280;45867;52.480;6.056;2023-04-21T02:38:56;101526.38;;;8.29;100.00
60015;BME280;45867;52.480;6.056;2023-04-21T02:41:21;101528.66;;;8.37;100.00
60015;BME280;45867;52.480;6.056;2023-04-21T02:43:47;101518.56;;;8.34;100.00
60015;BME280;45867;52.480;6.056;2023-04-21T02:46:12;101521.53;;;8.37;100.00
60015;BME280;45867;52.480;6.056;2023-04-21T02:48:38;101525.22;;;8.36;100.00
60015;BME280;45867;52.480;6.056;2023-04-21T02:51:03;101515.72;;;8.35;100.00
60015;BME280;45867;52.480;6.056;2023-04-21T02:53:29;101524.91;;;8.33;100.00
60015;BME280;45867;52.480;6.056;2023-04-21T02:55:54;101514.81;;;8.30;100.00
60015;BME280;45867;52.480;6.056;2023-04-21T02:58:20;101520.09;;;8.30;100.00
60015;BME280;45867;52.480;6.056;2023-04-21T03:00:46;101531.56;;;8.35;100.00
60015;BME280;45867;52.480;6.056;2023-04-21T03:03:12;101530.28;;;8.38;100.00
60015;BME280;45867;52.480;6.056;2023-04-21T03:05:39;101531.31;;;8.37;100.00
60015;BME280;45867;52.480;6.056;2023-04-21T03:08:04;101526.28;;;8.35;100.00
60015;BME280;45867;52.480;6.056;2023-04-21T03:10:29;101541.44;;;8.40;100.00
60015;BME280;45867;52.480;6.056;2023-04-21T03:12:56;101528.78;;;8.42;100.00
60015;BME280;45867;52.480;6.056;2023-04-21T03:15:21;101539.69;;;8.45;100.00
60015;BME280;45867;52.480;6.056;2023-04-21T03:17:46;101531.44;;;8.42;100.00
60015;BME280;45867;52.480;6.056;2023-04-21T03:20:12;101545.53;;;8.48;100.00
60015;BME280;45867;52.480;6.056;2023-04-21T03:22:38;101555.09;;;8.49;100.00
60015;BME280;45867;52.480;6.056;2023-04-21T03:25:04;101555.75;;;8.56;100.00
60015;BME280;45867;52.480;6.056;2023-04-21T03:27:30;101544.06;;;8.52;100.00
60015;BME280;45867;52.480;6.056;2023-04-21T03:29:56;101540.03;;;8.49;100.00
60015;BME280;45867;52.480;6.056;2023-04-21T03:32:21;101540.03;;;8.49;100.00
60015;BME280;45867;52.480;6.056;2023-04-21T03:34:46;101549.88;;;8.54;100.00
60015;BME280;45867;52.480;6.056;2023-04-21T03:37:12;101548.06;;;8.54;100.00
60015;BME280;45867;52.480;6.056;2023-04-21T03:39:37;101543.34;;;8.56;100.00
60015;BME280;45867;52.480;6.056;2023-04-21T03:42:02;101546.69;;;8.52;100.00
60015;BME280;45867;52.480;6.056;2023-04-21T03:44:29;101551.84;;;8.58;100.00
60015;BME280;45867;52.480;6.056;2023-04-21T03:46:54;101546.44;;;8.53;100.00
60015;BME280;45867;52.480;6.056;2023-04-21T03:49:20;101545.44;;;8.54;100.00
60015;BME280;45867;52.480;6.056;2023-04-21T03:51:46;101549.44;;;8.57;100.00
60015;BME280;45867;52.480;6.056;2023-04-21T03:54:11;101547.81;;;8.56;100.00
60015;BME280;45867;52.480;6.056;2023-04-21T03:56:37;101551.84;;;8.58;100.00
60015;BME280;45867;52.480;6.056;2023-04-21T03:59:02;101547.03;;;8.55;100.00
60015;BME280;45867;52.480;6.056;2023-04-21T04:01:28;101549.19;;;8.58;100.00
60015;BME280;45867;52.480;6.056;2023-04-21T04:03:54;101544.59;;;8.54;100.00
60015;BME280;45867;52.480;6.056;2023-04-21T04:06:19;101545.75;;;8.58;100.00
60015;BME280;45867;52.480;6.056;2023-04-21T04:08:45;101546.91;;;8.50;100.00
60015;BME280;45867;52.480;6.056;2023-04-21T04:11:17;101542.31;;;8.57;100.00
60015;BME280;45867;52.480;6.056;2023-04-21T04:13:42;101530.13;;;8.56;100.00
60015;BME280;45867;52.480;6.056;2023-04-21T04:16:08;101528.75;;;8.54;100.00
60015;BME280;45867;52.480;6.056;2023-04-21T04:18:33;101535.66;;;8.55;100.00
60015;BME280;45867;52.480;6.056;2023-04-21T04:21:04;101534.38;;;8.57;100.00
60015;BME280;45867;52.480;6.056;2023-04-21T04:23:32;101532.22;;;8.54;100.00
60015;BME280;45867;52.480;6.056;2023-04-21T04:25:57;101525.56;;;8.52;100.00
60015;BME280;45867;52.480;6.056;2023-04-21T04:28:23;101524.19;;;8.49;100.00
60015;BME280;45867;52.480;6.056;2023-04-21T04:30:49;101525.88;;;8.55;100.00
60015;BME280;45867;52.480;6.056;2023-04-21T04:33:14;101530.47;;;8.60;100.00
60015;BME280;45867;52.480;6.056;2023-04-21T04:35:40;101513.56;;;8.61;100.00
60015;BME280;45867;52.480;6.056;2023-04-21T04:38:05;101522.56;;;8.60;100.00
60015;BME280;45867;52.480;6.056;2023-04-21T04:40:32;101530.81;;;8.63;100.00
60015;BME280;45867;52.480;6.056;2023-04-21T04:42:57;101527.34;;;8.63;100.00
60015;BME280;45867;52.480;6.056;2023-04-21T04:45:22;101536.09;;;8.63;100.00
60015;BME280;45867;52.480;6.056;2023-04-21T04:47:50;101513.16;;;8.52;100.00
60015;BME280;45867;52.480;6.056;2023-04-21T04:50:18;101540.56;;;8.63;100.00
60015;BME280;45867;52.480;6.056;2023-04-21T04:52:44;101532.66;;;8.63;100.00
60015;BME280;45867;52.480;6.056;2023-04-21T04:55:11;101544.69;;;8.71;100.00
60015;BME280;45867;52.480;6.056;2023-04-21T04:57:37;101541.94;;;8.65;100.00
60015;BME280;45867;52.480;6.056;2023-04-21T05:00:05;101544.78;;;8.76;100.00
60015;BME280;45867;52.480;6.056;2023-04-21T05:02:32;101548.91;;;8.72;100.00
60015;BME280;45867;52.480;6.056;2023-04-21T05:04:57;101541.22;;;8.70;100.00
60015;BME280;45867;52.480;6.056;2023-04-21T05:07:23;101541.22;;;8.70;100.00
60015;BME280;45867;52.480;6.056;2023-04-21T05:09:48;101549.13;;;8.70;100.00
60015;BME280;45867;52.480;6.056;2023-04-21T05:12:13;101538.50;;;8.65;100.00
60015;BME280;45867;52.480;6.056;2023-04-21T05:14:39;101546.28;;;8.72;100.00
60015;BME280;45867;52.480;6.056;2023-04-21T05:17:04;101554.22;;;8.72;100.00
60015;BME280;45867;52.480;6.056;2023-04-21T05:19:29;101545.00;;;8.74;100.00
60015;BME280;45867;52.480;6.056;2023-04-21T05:21:58;101549.25;;;8.75;100.00
60015;BME280;45867;52.480;6.056;2023-04-21T05:24:26;101546.75;;;8.69;100.00
60015;BME280;45867;52.480;6.056;2023-04-21T05:26:52;101562.72;;;8.74;100.00
60015;BME280;45867;52.480;6.056;2023-04-21T05:29:18;101552.13;;;8.74;100.00
60015;BME280;45867;52.480;6.056;2023-04-21T05:32:02;101544.09;;;8.69;100.00
60015;BME280;45867;52.480;6.056;2023-04-21T05:34:27;101535.38;;;8.68;100.00
60015;BME280;45867;52.480;6.056;2023-04-21T05:36:52;101539.81;;;8.79;100.00
60015;BME280;45867;52.480;6.056;2023-04-21T05:39:18;101552.34;;;8.84;100.00
60015;BME280;45867;52.480;6.056;2023-04-21T05:41:43;101524.97;;;8.78;100.00
60015;BME280;45867;52.480;6.056;2023-04-21T05:44:08;101539.56;;;8.81;100.00
60015;BME280;45867;52.480;6.056;2023-04-21T05:46:34;101545.19;;;8.84;100.00
60015;BME280;45867;52.480;6.056;2023-04-21T05:49:00;101560.91;;;8.91;100.00
60015;BME280;45867;52.480;6.056;2023-04-21T05:51:27;101566.66;;;8.88;100.00
60015;BME280;45867;52.480;6.056;2023-04-21T05:53:53;101561.47;;;8.93;100.00
60015;BME280;45867;52.480;6.056;2023-04-21T05:56:18;101544.16;;;8.85;100.00
60015;BME280;45867;52.480;6.056;2023-04-21T05:58:43;101542.72;;;8.95;100.00
60015;BME280;45867;52.480;6.056;2023-04-21T06:01:09;101558.59;;;8.95;100.00
60015;BME280;45867;52.480;6.056;2023-04-21T06:03:34;101548.84;;;8.95;100.00
60015;BME280;45867;52.480;6.056;2023-04-21T06:06:02;101557.56;;;8.96;100.00
60015;BME280;45867;52.480;6.056;2023-04-21T06:08:27;101559.56;;;9.05;100.00
60015;BME280;45867;52.480;6.056;2023-04-21T06:10:53;101555.44;;;9.09;100.00
60015;BME280;45867;52.480;6.056;2023-04-21T06:13:18;101558.78;;;9.22;100.00
60015;BME280;45867;52.480;6.056;2023-04-21T06:15:43;101568.91;;;9.25;100.00
60015;BME280;45867;52.480;6.056;2023-04-21T06:18:09;101570.13;;;9.34;100.00
60015;BME280;45867;52.480;6.056;2023-04-21T06:20:34;101553.53;;;9.39;100.00
60015;BME280;45867;52.480;6.056;2023-04-21T06:22:59;101563.16;;;9.45;100.00
60015;BME280;45867;52.480;6.056;2023-04-21T06:25:25;101563.00;;;9.51;100.00
60015;BME280;45867;52.480;6.056;2023-04-21T06:27:50;101555.44;;;9.60;100.00
60015;BME280;45867;52.480;6.056;2023-04-21T06:30:15;101555.59;;;9.70;100.00
60015;BME280;45867;52.480;6.056;2023-04-21T06:32:41;101556.78;;;9.96;100.00
60015;BME280;45867;52.480;6.056;2023-04-21T06:35:07;101544.09;;;10.37;100.00
60015;BME280;45867;52.480;6.056;2023-04-21T06:37:33;101545.56;;;10.72;100.00
60015;BME280;45867;52.480;6.056;2023-04-21T06:39:58;101547.66;;;10.70;100.00
60015;BME280;45867;52.480;6.056;2023-04-21T06:42:24;101544.66;;;10.61;100.00
60015;BME280;45867;52.480;6.056;2023-04-21T06:44:49;101534.72;;;10.52;100.00
60015;BME280;45867;52.480;6.056;2023-04-21T06:47:14;101533.56;;;10.42;100.00
60015;BME280;45867;52.480;6.056;2023-04-21T06:49:41;101519.75;;;10.40;100.00
60015;BME280;45867;52.480;6.056;2023-04-21T06:52:07;101523.94;;;10.36;100.00
60015;BME280;45867;52.480;6.056;2023-04-21T06:54:32;101521.50;;;10.30;100.00
60015;BME280;45867;52.480;6.056;2023-04-21T06:56:58;101525.22;;;10.34;100.00
60015;BME280;45867;52.480;6.056;2023-04-21T06:59:23;101526.38;;;10.21;100.00
60015;BME280;45867;52.480;6.056;2023-04-21T07:01:48;101524.53;;;10.21;100.00
60015;BME280;45867;52.480;6.056;2023-04-21T07:04:19;101528.78;;;10.22;100.00
60015;BME280;45867;52.480;6.056;2023-04-21T07:06:44;101529.03;;;10.21;100.00
60015;BME280;45867;52.480;6.056;2023-04-21T07:09:10;101534.19;;;10.11;100.00
60015;BME280;45867;52.480;6.056;2023-04-21T07:11:35;101536.53;;;10.07;100.00
60015;BME280;45867;52.480;6.056;2023-04-21T07:14:00;101525.16;;;10.07;100.00
60015;BME280;45867;52.480;6.056;2023-04-21T07:16:27;101541.56;;;10.09;100.00
60015;BME280;45867;52.480;6.056;2023-04-21T07:18:52;101538.63;;;10.05;100.00
60015;BME280;45867;52.480;6.056;2023-04-21T07:21:18;101540.56;;;10.10;100.00
60015;BME280;45867;52.480;6.056;2023-04-21T07:23:43;101534.75;;;10.13;100.00
60015;BME280;45867;52.480;6.056;2023-04-21T07:26:09;101539.56;;;10.16;100.00
60015;BME280;45867;52.480;6.056;2023-04-21T07:28:34;101547.75;;;10.14;100.00
60015;BME280;45867;52.480;6.056;2023-04-21T07:30:59;101543.69;;;10.07;100.00
60015;BME280;45867;52.480;6.056;2023-04-21T07:33:25;101531.78;;;10.09;100.00
60015;BME280;45867;52.480;6.056;2023-04-21T07:35:50;101534.91;;;10.23;100.00
60015;BME280;45867;52.480;6.056;2023-04-21T07:38:15;101539.78;;;10.31;100.00
60015;BME280;45867;52.480;6.056;2023-04-21T07:40:41;101541.88;;;10.29;100.00
60015;BME280;45867;52.480;6.056;2023-04-21T07:43:06;101536.72;;;10.22;100.00
60015;BME280;45867;52.480;6.056;2023-04-21T07:45:31;101534.16;;;10.28;100.00
60015;BME280;45867;52.480;6.056;2023-04-21T07:47:57;101537.75;;;10.38;100.00
60015;BME280;45867;52.480;6.056;2023-04-21T07:50:23;101535.41;;;10.42;100.00
60015;BME280;45867;52.480;6.056;2023-04-21T07:52:48;101532.38;;;10.55;100.00
60015;BME280;45867;52.480;6.056;2023-04-21T07:55:14;101526.56;;;10.58;100.00
60015;BME280;45867;52.480;6.056;2023-04-21T07:57:39;101530.69;;;10.71;100.00
60015;BME280;45867;52.480;6.056;2023-04-21T08:00:06;101527.44;;;10.64;100.00
60015;BME280;45867;52.480;6.056;2023-04-21T08:02:31;101533.53;;;10.64;100.00
60015;BME280;45867;52.480;6.056;2023-04-21T08:04:57;101525.69;;;10.75;100.00
60015;BME280;45867;52.480;6.056;2023-04-21T08:07:22;101529.50;;;10.84;100.00
60015;BME280;45867;52.480;6.056;2023-04-21T08:09:48;101522.28;;;10.79;100.00
60015;BME280;45867;52.480;6.056;2023-04-21T08:12:14;101530.41;;;10.95;100.00
60015;BME280;45867;52.480;6.056;2023-04-21T08:14:39;101529.28;;;10.91;100.00
60015;BME280;45867;52.480;6.056;2023-04-21T08:17:05;101539.16;;;10.95;100.00
60015;BME280;45867;52.480;6.056;2023-04-21T08:19:30;101543.09;;;10.93;100.00
60015;BME280;45867;52.480;6.056;2023-04-21T08:21:56;101527.75;;;10.95;100.00
60015;BME280;45867;52.480;6.056;2023-04-21T08:24:22;101542.69;;;11.06;100.00
60015;BME280;45867;52.480;6.056;2023-04-21T08:26:48;101538.16;;;11.01;100.00
60015;BME280;45867;52.480;6.056;2023-04-21T08:29:13;101540.66;;;11.13;100.00
60015;BME280;45867;52.480;6.056;2023-04-21T08:31:41;101533.56;;;11.24;100.00
60015;BME280;45867;52.480;6.056;2023-04-21T08:34:06;101532.34;;;11.37;100.00
60015;BME280;45867;52.480;6.056;2023-04-21T08:36:32;101536.81;;;11.31;100.00
60015;BME280;45867;52.480;6.056;2023-04-21T08:38:57;101545.03;;;11.29;100.00
60015;BME280;45867;52.480;6.056;2023-04-21T08:41:23;101537.72;;;11.47;100.00
60015;BME280;45867;52.480;6.056;2023-04-21T08:43:49;101526.38;;;11.56;100.00
60015;BME280;45867;52.480;6.056;2023-04-21T08:46:14;101527.19;;;11.57;100.00
60015;BME280;45867;52.480;6.056;2023-04-21T08:48:40;101524.59;;;11.62;100.00
60015;BME280;45867;52.480;6.056;2023-04-21T08:51:06;101521.75;;;11.79;100.00
60015;BME280;45867;52.480;6.056;2023-04-21T08:53:34;101523.63;;;11.78;100.00
60015;BME280;45867;52.480;6.056;2023-04-21T08:55:59;101515.91;;;11.77;100.00
60015;BME280;45867;52.480;6.056;2023-04-21T08:58:25;101523.09;;;11.82;100.00
60015;BME280;45867;52.480;6.056;2023-04-21T09:00:50;101531.88;;;11.82;100.00
60015;BME280;45867;52.480;6.056;2023-04-21T09:03:23;101523.63;;;11.84;100.00
60015;BME280;45867;52.480;6.056;2023-04-21T09:06:11;101520.44;;;11.82;100.00
60015;BME280;45867;52.480;6.056;2023-04-21T09:08:38;101532.66;;;11.83;100.00
60015;BME280;45867;52.480;6.056;2023-04-21T09:11:06;101531.28;;;11.75;100.00
60015;BME280;45867;52.480;6.056;2023-04-21T09:13:36;101527.91;;;11.85;100.00
60015;BME280;45867;52.480;6.056;2023-04-21T09:16:03;101524.94;;;11.76;100.00
60015;BME280;45867;52.480;6.056;2023-04-21T09:18:30;101524.34;;;11.69;100.00
60015;BME280;45867;52.480;6.056;2023-04-21T09:23:45;101520.31;;;11.61;100.00
60015;BME280;45867;52.480;6.056;2023-04-21T09:26:11;101523.75;;;11.62;100.00
60015;BME280;45867;52.480;6.056;2023-04-21T09:28:40;101526.13;;;11.58;100.00
60015;BME280;45867;52.480;6.056;2023-04-21T09:31:16;101526.38;;;11.56;100.00
60015;BME280;45867;52.480;6.056;2023-04-21T09:33:48;101521.06;;;11.56;100.00
60015;BME280;45867;52.480;6.056;2023-04-21T09:36:24;101523.72;;;11.56;100.00
60015;BME280;45867;52.480;6.056;2023-04-21T09:41:18;101520.81;;;11.58;100.00
60015;BME280;45867;52.480;6.056;2023-04-21T09:43:44;101526.72;;;11.65;100.00
60015;BME280;45867;52.480;6.056;2023-04-21T09:46:10;101524.06;;;11.65;100.00
60015;BME280;45867;52.480;6.056;2023-04-21T09:48:39;101520.09;;;11.68;100.00
60015;BME280;45867;52.480;6.056;2023-04-21T09:51:07;101517.56;;;11.88;100.00
60015;BME280;45867;52.480;6.056;2023-04-21T09:53:33;101521.66;;;12.06;100.00
60015;BME280;45867;52.480;6.056;2023-04-21T09:55:59;101522.47;;;12.07;100.00
60015;BME280;45867;52.480;6.056;2023-04-21T09:58:27;101520.59;;;12.07;100.00
60015;BME280;45867;52.480;6.056;2023-04-21T10:00:57;101499.91;;;12.09;100.00
60015;BME280;45867;52.480;6.056;2023-04-21T10:03:26;101512.13;;;12.15;100.00
60015;BME280;45867;52.480;6.056;2023-04-21T10:05:52;101508.69;;;12.15;100.00
60015;BME280;45867;52.480;6.056;2023-04-21T10:08:17;101514.81;;;12.20;100.00
60015;BME280;45867;52.480;6.056;2023-04-21T10:10:44;101506.38;;;12.34;100.00
60015;BME280;45867;52.480;6.056;2023-04-21T10:13:13;101500.06;;;12.60;100.00
60015;BME280;45867;52.480;6.056;2023-04-21T10:15:42;101502.25;;;13.04;100.00
60015;BME280;45867;52.480;6.056;2023-04-21T10:18:11;101500.66;;;13.34;100.00
60015;BME280;45867;52.480;6.056;2023-04-21T10:23:41;101489.88;;;13.85;100.00
60015;BME280;45867;52.480;6.056;2023-04-21T10:26:21;101494.56;;;14.19;100.00
60015;BME280;45867;52.480;6.056;2023-04-21T10:28:56;101488.09;;;14.35;100.00
60015;BME280;45867;52.480;6.056;2023-04-21T10:31:32;101493.28;;;14.11;100.00
60015;BME280;45867;52.480;6.056;2023-04-21T10:36:46;101488.19;;;14.15;100.00
60015;BME280;45867;52.480;6.056;2023-04-21T10:39:31;101486.59;;;14.14;100.00
60015;BME280;45867;52.480;6.056;2023-04-21T10:44:52;101480.53;;;13.98;100.00
60015;BME280;45867;52.480;6.056;2023-04-21T10:50:15;101478.75;;;13.68;100.00
60015;BME280;45867;52.480;6.056;2023-04-21T10:55:28;101469.75;;;13.43;100.00
60015;BME280;45867;52.480;6.056;2023-04-21T10:57:54;101481.75;;;13.51;100.00
60015;BME280;45867;52.480;6.056;2023-04-21T11:00:21;101483.31;;;13.57;100.00
60015;BME280;45867;52.480;6.056;2023-04-21T11:03:04;101480.91;;;13.61;100.00
60015;BME280;45867;52.480;6.056;2023-04-21T11:05:30;101476.94;;;13.48;100.00
60015;BME280;45867;52.480;6.056;2023-04-21T11:08:04;101466.03;;;13.39;100.00
60015;BME280;45867;52.480;6.056;2023-04-21T11:10:40;101472.13;;;13.50;100.00
60015;BME280;45867;52.480;6.056;2023-04-21T11:13:06;101456.94;;;13.66;100.00
60015;BME280;45867;52.480;6.056;2023-04-21T11:15:32;101461.44;;;13.75;100.00
60015;BME280;45867;52.480;6.056;2023-04-21T11:17:57;101461.09;;;13.97;100.00
60015;BME280;45867;52.480;6.056;2023-04-21T11:20:22;101455.72;;;14.08;100.00
60015;BME280;45867;52.480;6.056;2023-04-21T11:22:51;101449.00;;;14.15;100.00
60015;BME280;45867;52.480;6.056;2023-04-21T11:25:17;101435.94;;;14.19;100.00
60015;BME280;45867;52.480;6.056;2023-04-21T11:27:54;101439.19;;;14.11;100.00
60015;BME280;45867;52.480;6.056;2023-04-21T11:30:30;101440.22;;;14.15;100.00
60015;BME280;45867;52.480;6.056;2023-04-21T11:32:58;101430.94;;;14.02;100.00
60015;BME280;45867;52.480;6.056;2023-04-21T11:35:23;101430.16;;;13.96;100.00
60015;BME280;45867;52.480;6.056;2023-04-21T11:37:49;101431.47;;;13.99;100.00
60015;BME280;45867;52.480;6.056;2023-04-21T11:40:16;101424.25;;;14.05;100.00
60015;BME280;45867;52.480;6.056;2023-04-21T11:42:41;101424.38;;;13.79;100.00
60015;BME280;45867;52.480;6.056;2023-04-21T11:45:07;101421.72;;;13.79;100.00
60015;BME280;45867;52.480;6.056;2023-04-21T11:47:40;101441.19;;;13.69;100.00
60015;BME280;45867;52.480;6.056;2023-04-21T11:50:05;101434.88;;;13.50;100.00
60015;BME280;45867;52.480;6.056;2023-04-21T11:52:32;101432.19;;;13.55;100.00
60015;BME280;45867;52.480;6.056;2023-04-21T11:55:10;101437.28;;;13.31;100.00
60015;BME280;45867;52.480;6.056;2023-04-21T11:57:35;101447.41;;;13.24;100.00
60015;BME280;45867;52.480;6.056;2023-04-21T12:00:03;101445.53;;;13.14;100.00
60015;BME280;45867;52.480;6.056;2023-04-21T12:02:31;101437.84;;;13.13;100.00
60015;BME280;45867;52.480;6.056;2023-04-21T12:05:10;101440.75;;;13.11;100.00
60015;BME280;45867;52.480;6.056;2023-04-21T12:07:44;101439.97;;;13.10;100.00
60015;BME280;45867;52.480;6.056;2023-04-21T12:10:16;101433.06;;;13.04;100.00
60015;BME280;45867;52.480;6.056;2023-04-21T12:13:01;101431.19;;;13.05;100.00
60015;BME280;45867;52.480;6.056;2023-04-21T12:15:29;101418.44;;;13.02;100.00
60015;BME280;45867;52.480;6.056;2023-04-21T12:17:55;101427.22;;;12.97;100.00
60015;BME280;45867;52.480;6.056;2023-04-21T12:20:28;101420.00;;;12.98;100.00
60015;BME280;45867;52.480;6.056;2023-04-21T12:22:53;101408.31;;;12.99;100.00
60015;BME280;45867;52.480;6.056;2023-04-21T12:25:20;101402.44;;;13.17;100.00
60015;BME280;45867;52.480;6.056;2023-04-21T12:27:57;101399.25;;;13.15;100.00
60015;BME280;45867;52.480;6.056;2023-04-21T12:30:23;101386.75;;;13.26;100.00
60015;BME280;45867;52.480;6.056;2023-04-21T12:32:48;101383.78;;;13.43;100.00
60015;BME280;45867;52.480;6.056;2023-04-21T12:35:16;101369.94;;;13.46;100.00
60015;BME280;45867;52.480;6.056;2023-04-21T12:37:41;101375.50;;;13.44;100.00
60015;BME280;45867;52.480;6.056;2023-04-21T12:40:07;101371.50;;;13.47;100.00
60015;BME280;45867;52.480;6.056;2023-04-21T12:42:32;101359.75;;;13.53;100.00
60015;BME280;45867;52.480;6.056;2023-04-21T12:44:58;101367.44;;;13.70;100.00
60015;BME280;45867;52.480;6.056;2023-04-21T12:47:23;101359.56;;;13.94;100.00
60015;BME280;45867;52.480;6.056;2023-04-21T12:49:48;101349.28;;;14.21;100.00
60015;BME280;45867;52.480;6.056;2023-04-21T12:52:14;101345.88;;;14.50;100.00
60015;BME280;45867;52.480;6.056;2023-04-21T12:54:39;101344.63;;;14.72;100.00
60015;BME280;45867;52.480;6.056;2023-04-21T12:57:05;101337.28;;;15.36;100.00
60015;BME280;45867;52.480;6.056;2023-04-21T12:59:31;101340.50;;;16.00;100.00
60015;BME280;45867;52.480;6.056;2023-04-21T13:01:56;101330.06;;;16.50;100.00